createdAt,value
2022-09-09T00:02:21.670Z,14.60
2022-09-09T00:05:31.802Z,14.60
2022-09-09T00:08:45.368Z,14.60
2022-09-09T00:11:53.670Z,14.70
2022-09-09T00:15:00.289Z,14.70
2022-09-09T00:18:15.264Z,14.80
2022-09-09T00:21:19.864Z,14.80
2022-09-09T00:24:29.159Z,14.90
2022-09-09T00:27:38.992Z,14.90
2022-09-09T00:30:43.340Z,15.00
2022-09-09T00:33:47.249Z,15.00
2022-09-09T00:36:53.141Z,15.00
2022-09-09T00:40:01.808Z,15.10
2022-09-09T00:43:23.203Z,15.20
2022-09-09T00:46:44.440Z,15.20
2022-09-09T00:50:01.615Z,15.30
2022-09-09T00:53:28.745Z,15.30
2022-09-09T00:56:43.280Z,15.30
2022-09-09T00:59:51.202Z,15.40
2022-09-09T01:03:21.767Z,15.40
2022-09-09T01:06:31.791Z,15.40
2022-09-09T01:09:43.376Z,15.40
2022-09-09T01:12:50.871Z,15.40
2022-09-09T01:15:59.731Z,15.40
2022-09-09T01:19:07.262Z,15.40
2022-09-09T01:22:21.005Z,15.30
2022-09-09T01:25:47.210Z,15.30
2022-09-09T01:28:53.714Z,15.20
2022-09-09T01:31:58.195Z,15.30
2022-09-09T01:35:01.236Z,15.30
2022-09-09T01:38:04.362Z,15.30
2022-09-09T01:41:07.493Z,15.30
2022-09-09T01:44:12.820Z,15.30
2022-09-09T01:47:18.721Z,15.30
2022-09-09T01:50:23.372Z,15.30
2022-09-09T01:53:26.676Z,15.30
2022-09-09T01:56:41.876Z,15.30
2022-09-09T01:59:55.447Z,15.20
2022-09-09T02:03:07.501Z,15.10
2022-09-09T02:06:26.406Z,15.10
2022-09-09T02:09:32.554Z,15.00
2022-09-09T02:12:35.840Z,15.00
2022-09-09T02:15:45.454Z,15.00
2022-09-09T02:18:52.670Z,15.00
2022-09-09T02:21:58.569Z,15.00
2022-09-09T02:25:02.477Z,15.00
2022-09-09T02:28:08.638Z,14.90
2022-09-09T02:31:13.417Z,14.90
2022-09-09T02:34:17.979Z,14.90
2022-09-09T02:37:25.998Z,14.80
2022-09-09T02:40:29.134Z,14.80
2022-09-09T02:43:34.132Z,14.90
2022-09-09T02:46:54.884Z,14.90
2022-09-09T02:50:08.834Z,14.90
2022-09-09T02:53:18.398Z,14.90
2022-09-09T02:56:25.366Z,14.80
2022-09-09T02:59:28.794Z,14.80
2022-09-09T03:02:33.276Z,14.80
2022-09-09T03:05:37.264Z,14.80
2022-09-09T03:08:40.588Z,14.80
2022-09-09T03:11:44.718Z,14.90
2022-09-09T03:14:48.321Z,14.90
2022-09-09T03:17:52.955Z,14.90
2022-09-09T03:20:56.008Z,14.90
2022-09-09T03:23:59.217Z,15.00
2022-09-09T03:27:02.254Z,14.90
2022-09-09T03:30:06.041Z,14.90
2022-09-09T03:33:11.381Z,14.90
2022-09-09T03:36:14.451Z,14.80
2022-09-09T03:39:17.737Z,14.80
2022-09-09T03:42:20.719Z,14.70
2022-09-09T03:45:23.740Z,14.70
2022-09-09T03:48:29.319Z,14.60
2022-09-09T03:51:32.421Z,14.70
2022-09-09T03:54:35.954Z,14.70
2022-09-09T03:57:39.777Z,14.60
2022-09-09T04:00:45.995Z,14.60
2022-09-09T04:03:51.266Z,14.60
2022-09-09T04:06:54.352Z,14.60
2022-09-09T04:09:57.906Z,14.50
2022-09-09T04:13:01.319Z,14.60
2022-09-09T04:16:05.529Z,14.50
2022-09-09T04:19:09.889Z,14.50
2022-09-09T04:22:12.844Z,14.50
2022-09-09T04:25:15.924Z,14.50
2022-09-09T04:28:20.193Z,14.50
2022-09-09T04:31:24.985Z,14.50
2022-09-09T04:34:29.527Z,14.50
2022-09-09T04:37:32.487Z,14.60
2022-09-09T04:40:35.686Z,14.60
2022-09-09T04:43:38.781Z,14.60
2022-09-09T04:46:42.207Z,14.60
2022-09-09T04:49:46.536Z,14.60
2022-09-09T04:52:49.683Z,14.60
2022-09-09T04:55:52.847Z,14.70
2022-09-09T04:58:56.392Z,14.70
2022-09-09T05:02:01.984Z,14.70
2022-09-09T05:05:06.970Z,14.80
2022-09-09T05:08:10.921Z,14.80
2022-09-09T05:11:18.529Z,14.80
2022-09-09T05:14:21.501Z,14.70
2022-09-09T05:17:24.539Z,14.70
2022-09-09T05:20:29.287Z,14.80
2022-09-09T05:23:32.793Z,14.80
2022-09-09T05:26:35.769Z,14.70
2022-09-09T05:29:38.834Z,14.70
2022-09-09T05:32:41.959Z,14.60
2022-09-09T05:35:46.239Z,14.70
2022-09-09T05:38:50.126Z,14.70
2022-09-09T05:41:53.090Z,14.80
2022-09-09T05:44:56.238Z,14.80
2022-09-09T05:48:01.055Z,14.80
2022-09-09T05:51:07.738Z,15.00
2022-09-09T05:54:11.070Z,14.90
2022-09-09T05:57:14.243Z,14.90
2022-09-09T06:00:17.481Z,15.00
2022-09-09T06:03:24.494Z,15.00
2022-09-09T06:06:32.892Z,15.10
2022-09-09T06:09:35.871Z,15.20
2022-09-09T06:12:39.784Z,15.30
2022-09-09T06:15:52.135Z,15.30
2022-09-09T06:18:57.324Z,15.40
2022-09-09T06:22:01.691Z,15.50
2022-09-09T06:25:05.010Z,15.50
2022-09-09T06:28:08.001Z,15.50
2022-09-09T06:31:13.450Z,15.50
2022-09-09T06:34:16.563Z,15.50
2022-09-09T06:37:21.518Z,15.40
2022-09-09T06:40:24.554Z,15.40
2022-09-09T06:43:27.987Z,15.40
2022-09-09T06:46:33.869Z,15.30
2022-09-09T06:49:36.967Z,15.30
2022-09-09T06:52:41.326Z,15.30
2022-09-09T06:55:45.841Z,15.40
2022-09-09T06:58:49.794Z,15.50
2022-09-09T07:01:56.248Z,15.50
2022-09-09T07:04:59.718Z,15.60
2022-09-09T07:08:04.872Z,15.60
2022-09-09T07:11:12.397Z,15.70
2022-09-09T07:14:16.356Z,15.80
2022-09-09T07:17:19.311Z,15.90
2022-09-09T07:20:22.352Z,16.10
2022-09-09T07:23:26.990Z,16.20
2022-09-09T07:26:32.092Z,16.30
2022-09-09T07:29:35.066Z,16.40
2022-09-09T07:32:38.053Z,16.30
2022-09-09T07:35:41.608Z,16.40
2022-09-09T07:38:47.577Z,16.50
2022-09-09T07:41:51.913Z,16.50
2022-09-09T07:44:56.024Z,16.60
2022-09-09T07:47:59.046Z,16.90
2022-09-09T07:51:08.256Z,17.20
2022-09-09T07:54:14.806Z,17.40
2022-09-09T07:57:19.533Z,17.40
2022-09-09T08:00:23.128Z,17.30
2022-09-09T08:03:26.262Z,17.10
2022-09-09T08:06:30.313Z,17.10
2022-09-09T08:09:34.689Z,17.20
2022-09-09T08:12:37.675Z,17.30
2022-09-09T08:15:40.726Z,17.30
2022-09-09T08:18:44.163Z,17.40
2022-09-09T08:21:47.458Z,17.50
2022-09-09T08:24:51.793Z,17.60
2022-09-09T08:27:55.405Z,17.70
2022-09-09T08:31:06.282Z,17.90
2022-09-09T08:34:10.033Z,18.10
2022-09-09T08:37:13.005Z,18.10
2022-09-09T08:40:24.768Z,18.10
2022-09-09T08:43:30.242Z,18.00
2022-09-09T08:46:41.157Z,18.00
2022-09-09T08:50:01.078Z,18.10
2022-09-09T08:53:06.824Z,18.10
2022-09-09T08:56:16.216Z,18.10
2022-09-09T08:59:21.105Z,18.10
2022-09-09T09:02:28.662Z,18.20
2022-09-09T09:05:39.081Z,18.30
2022-09-09T09:08:50.039Z,18.40
2022-09-09T09:12:15.431Z,18.60
2022-09-09T09:15:22.788Z,18.50
2022-09-09T09:18:25.898Z,18.50
2022-09-09T09:21:36.463Z,18.60
2022-09-09T09:24:48.584Z,18.70
2022-09-09T09:28:01.603Z,18.70
2022-09-09T09:31:08.154Z,18.90
2022-09-09T09:34:12.994Z,18.90
2022-09-09T09:37:20.580Z,19.20
2022-09-09T09:40:25.119Z,19.30
2022-09-09T09:43:32.398Z,19.40
2022-09-09T09:46:35.474Z,19.40
2022-09-09T09:49:38.686Z,19.40
2022-09-09T09:52:45.620Z,19.50
2022-09-09T09:55:55.030Z,19.60
2022-09-09T09:58:59.643Z,19.60
2022-09-09T10:02:20.639Z,19.60
2022-09-09T10:05:27.538Z,19.80
2022-09-09T10:08:31.097Z,19.80
2022-09-09T10:11:47.394Z,19.80
2022-09-09T10:15:02.495Z,19.90
2022-09-09T10:18:19.978Z,19.90
2022-09-09T10:22:02.874Z,20.20
2022-09-09T10:25:29.622Z,20.40
2022-09-09T10:28:57.414Z,20.70
2022-09-09T10:32:16.121Z,20.70
2022-09-09T10:35:32.774Z,20.80
2022-09-09T10:38:44.417Z,20.90
2022-09-09T10:41:55.785Z,20.90
2022-09-09T10:45:15.792Z,20.90
2022-09-09T10:48:33.170Z,21.00
2022-09-09T10:51:46.415Z,21.40
2022-09-09T10:54:59.063Z,21.70
2022-09-09T10:58:05.961Z,21.90
2022-09-09T11:01:16.977Z,21.80
2022-09-09T11:04:25.808Z,21.60
2022-09-09T11:07:36.282Z,21.60
2022-09-09T11:10:44.618Z,21.60
2022-09-09T11:13:52.408Z,21.40
2022-09-09T11:17:01.146Z,21.40
2022-09-09T11:20:08.611Z,21.50
2022-09-09T11:23:17.222Z,21.80
2022-09-09T11:26:30.054Z,22.40
2022-09-09T11:30:04.346Z,22.70
2022-09-09T11:33:25.203Z,22.80
2022-09-09T11:36:45.243Z,23.10
2022-09-09T11:40:15.968Z,23.00
2022-09-09T11:43:24.782Z,23.00
2022-09-09T11:46:36.609Z,22.70
2022-09-09T11:49:43.510Z,22.30
2022-09-09T11:52:49.513Z,22.20
2022-09-09T11:56:13.952Z,22.00
2022-09-09T11:59:23.057Z,21.80
2022-09-09T12:02:27.719Z,21.60
2022-09-09T12:05:40.298Z,21.20
2022-09-09T12:08:47.412Z,21.40
2022-09-09T12:11:50.478Z,22.00
2022-09-09T12:15:01.178Z,22.10
2022-09-09T12:18:04.865Z,22.00
2022-09-09T12:21:16.411Z,21.70
2022-09-09T12:24:26.999Z,21.50
2022-09-09T12:27:35.481Z,21.40
2022-09-09T12:30:49.183Z,21.30
2022-09-09T12:33:53.705Z,21.30
2022-09-09T12:37:02.101Z,21.30
2022-09-09T12:40:18.502Z,21.80
2022-09-09T12:43:23.440Z,22.90
2022-09-09T12:46:35.001Z,23.20
2022-09-09T12:49:42.086Z,23.00
2022-09-09T12:52:46.712Z,22.70
2022-09-09T12:55:54.843Z,22.60
2022-09-09T12:58:59.319Z,22.40
2022-09-09T13:02:02.860Z,22.10
2022-09-09T13:05:17.357Z,21.70
2022-09-09T13:08:21.703Z,21.50
2022-09-09T13:11:30.923Z,21.20
2022-09-09T13:14:38.256Z,21.00
2022-09-09T13:17:41.806Z,20.80
2022-09-09T13:20:48.948Z,20.60
2022-09-09T13:23:53.189Z,20.40
2022-09-09T13:26:59.112Z,20.30
2022-09-09T13:30:03.064Z,20.10
2022-09-09T13:33:22.459Z,20.00
2022-09-09T13:36:33.214Z,20.00
2022-09-09T13:39:37.637Z,20.00
2022-09-09T13:42:44.495Z,19.50
2022-09-09T13:45:56.249Z,18.80
2022-09-09T13:49:00.083Z,18.40
2022-09-09T13:52:10.938Z,18.10
2022-09-09T13:55:14.052Z,17.90
2022-09-09T13:58:20.099Z,17.70
2022-09-09T14:01:27.570Z,17.50
2022-09-09T14:04:32.372Z,17.40
2022-09-09T14:07:35.395Z,17.40
2022-09-09T14:10:38.391Z,17.40
2022-09-09T14:13:42.732Z,17.40
2022-09-09T14:16:46.384Z,17.50
2022-09-09T14:19:49.313Z,17.40
2022-09-09T14:22:52.566Z,17.40
2022-09-09T14:25:56.241Z,17.50
2022-09-09T14:29:01.858Z,17.50
2022-09-09T14:32:08.331Z,17.60
2022-09-09T14:35:13.630Z,17.70
2022-09-09T14:38:19.046Z,17.70
2022-09-09T14:41:23.467Z,17.70
2022-09-09T14:44:27.814Z,17.30
2022-09-09T14:47:31.317Z,17.10
2022-09-09T14:50:35.770Z,17.10
2022-09-09T14:53:39.045Z,17.10
2022-09-09T14:56:42.180Z,17.10
2022-09-09T14:59:46.589Z,17.10
2022-09-09T15:02:49.612Z,17.10
2022-09-09T15:05:52.548Z,17.10
2022-09-09T15:08:58.640Z,17.20
2022-09-09T15:12:02.856Z,17.10
2022-09-09T15:15:08.054Z,17.10
2022-09-09T15:18:11.065Z,17.10
2022-09-09T15:21:16.398Z,17.10
2022-09-09T15:24:19.395Z,17.20
2022-09-09T15:27:24.102Z,17.20
2022-09-09T15:30:28.521Z,17.20
2022-09-09T15:33:31.484Z,17.20
2022-09-09T15:36:36.160Z,17.30
2022-09-09T15:39:39.190Z,17.30
2022-09-09T15:42:42.195Z,17.40
2022-09-09T15:45:48.628Z,17.40
2022-09-09T15:48:53.865Z,17.50
2022-09-09T15:51:59.916Z,17.50
2022-09-09T15:55:02.923Z,17.30
2022-09-09T15:58:05.887Z,17.30
2022-09-09T16:01:12.152Z,17.30
2022-09-09T16:04:16.583Z,17.40
2022-09-09T16:07:20.212Z,17.40
2022-09-09T16:10:23.253Z,17.40
2022-09-09T16:13:27.152Z,17.50
2022-09-09T16:16:32.100Z,17.40
2022-09-09T16:19:36.283Z,17.40
2022-09-09T16:22:39.275Z,17.50
2022-09-09T16:25:43.100Z,17.60
2022-09-09T16:28:47.355Z,17.60
2022-09-09T16:31:52.790Z,17.60
2022-09-09T16:34:55.741Z,17.70
2022-09-09T16:37:58.671Z,17.70
2022-09-09T16:41:01.929Z,17.70
2022-09-09T16:44:06.813Z,17.60
2022-09-09T16:47:11.171Z,17.60
2022-09-09T16:50:14.227Z,17.70
2022-09-09T16:53:17.254Z,17.70
2022-09-09T16:56:21.776Z,17.70
2022-09-09T16:59:24.828Z,17.70
2022-09-09T17:02:29.696Z,17.60
2022-09-09T17:05:33.649Z,17.60
2022-09-09T17:08:36.766Z,17.50
2022-09-09T17:11:40.847Z,17.40
2022-09-09T17:14:44.060Z,17.40
2022-09-09T17:17:50.089Z,17.40
2022-09-09T17:20:53.092Z,17.30
2022-09-09T17:23:57.582Z,17.10
2022-09-09T17:27:01.774Z,17.10
2022-09-09T17:30:05.153Z,17.10
2022-09-09T17:33:09.452Z,17.00
2022-09-09T17:36:15.104Z,17.00
2022-09-09T17:39:18.158Z,17.00
2022-09-09T17:42:21.166Z,17.00
2022-09-09T17:45:24.120Z,17.00
2022-09-09T17:48:28.414Z,17.00
2022-09-09T17:51:33.246Z,16.90
2022-09-09T17:54:37.380Z,16.80
2022-09-09T17:57:40.565Z,16.80
2022-09-09T18:00:43.580Z,16.80
2022-09-09T18:03:48.954Z,16.80
2022-09-09T18:06:54.422Z,16.70
2022-09-09T18:09:57.496Z,16.70
2022-09-09T18:13:02.129Z,16.70
2022-09-09T18:16:09.521Z,16.60
2022-09-09T18:19:16.449Z,16.60
2022-09-09T18:22:19.827Z,16.60
2022-09-09T18:25:22.765Z,16.60
2022-09-09T18:28:26.186Z,16.50
2022-09-09T18:31:30.522Z,16.50
2022-09-09T18:34:35.646Z,16.50
2022-09-09T18:37:39.716Z,16.50
2022-09-09T18:40:42.721Z,16.50
2022-09-09T18:43:46.277Z,16.50
2022-09-09T18:46:50.486Z,16.50
2022-09-09T18:49:55.481Z,16.50
2022-09-09T18:52:58.509Z,16.50
2022-09-09T18:56:04.430Z,16.50
2022-09-09T18:59:10.430Z,16.50
2022-09-09T19:02:13.419Z,16.50
2022-09-09T19:05:17.837Z,16.50
2022-09-09T19:08:21.214Z,16.50
2022-09-09T19:11:25.093Z,16.50
2022-09-09T19:14:28.897Z,16.60
2022-09-09T19:17:33.492Z,16.60
2022-09-09T19:20:38.173Z,16.50
2022-09-09T19:23:42.041Z,16.50
2022-09-09T19:26:48.138Z,16.50
2022-09-09T19:29:56.378Z,16.50
2022-09-09T19:33:00.933Z,16.50
2022-09-09T19:36:09.198Z,16.50
2022-09-09T19:39:12.224Z,16.50
2022-09-09T19:42:15.596Z,16.50
2022-09-09T19:45:18.615Z,16.40
2022-09-09T19:48:21.627Z,16.40
2022-09-09T19:51:26.775Z,16.40
2022-09-09T19:54:29.864Z,16.40
2022-09-09T19:57:32.851Z,16.30
2022-09-09T20:00:39.558Z,16.30
2022-09-09T20:03:44.882Z,16.30
2022-09-09T20:06:49.242Z,16.30
2022-09-09T20:09:54.739Z,16.30
2022-09-09T20:12:57.703Z,16.30
2022-09-09T20:16:01.947Z,16.30
2022-09-09T20:19:07.554Z,16.20
2022-09-09T20:22:12.014Z,16.20
2022-09-09T20:25:16.098Z,16.20
2022-09-09T20:28:20.121Z,16.20
2022-09-09T20:31:25.302Z,16.20
2022-09-09T20:34:29.958Z,16.20
2022-09-09T20:37:34.245Z,16.20
2022-09-09T20:40:38.021Z,16.20
2022-09-09T20:43:41.579Z,16.10
2022-09-09T20:46:47.897Z,16.20
2022-09-09T20:49:50.919Z,16.20
2022-09-09T20:52:55.200Z,16.10
2022-09-09T20:56:00.856Z,16.10
2022-09-09T20:59:04.229Z,16.10
2022-09-09T21:02:08.107Z,16.10
2022-09-09T21:05:11.875Z,16.20
2022-09-09T21:08:16.171Z,16.10
2022-09-09T21:11:19.171Z,16.10
2022-09-09T21:14:22.415Z,16.20
2022-09-09T21:17:25.424Z,16.20
2022-09-09T21:20:28.338Z,16.20
2022-09-09T21:23:32.636Z,16.20
2022-09-09T21:26:36.223Z,16.20
2022-09-09T21:29:39.159Z,16.20
2022-09-09T21:32:42.141Z,16.20
2022-09-09T21:35:45.515Z,16.20
2022-09-09T21:38:50.434Z,16.20
2022-09-09T21:41:53.474Z,16.20
2022-09-09T21:44:56.493Z,16.20
2022-09-09T21:48:00.315Z,16.30
2022-09-09T21:51:05.026Z,16.20
2022-09-09T21:54:09.305Z,16.20
2022-09-09T21:57:14.218Z,16.30
2022-09-09T22:00:18.181Z,16.30
2022-09-09T22:03:21.150Z,16.30
2022-09-09T22:06:24.084Z,16.40
2022-09-09T22:09:28.511Z,16.40
2022-09-09T22:12:32.657Z,16.40
2022-09-09T22:15:36.150Z,16.40
2022-09-09T22:18:39.494Z,16.30
2022-09-09T22:21:42.540Z,16.20
2022-09-09T22:24:46.892Z,16.10
2022-09-09T22:27:49.846Z,16.10
2022-09-09T22:30:52.804Z,16.10
2022-09-09T22:33:55.985Z,16.00
2022-09-09T22:36:59.169Z,15.90
2022-09-09T22:40:03.859Z,15.90
2022-09-09T22:43:07.993Z,16.00
2022-09-09T22:46:11.547Z,16.00
2022-09-09T22:49:14.653Z,16.00
2022-09-09T22:52:17.567Z,15.90
2022-09-09T22:55:21.833Z,15.90
2022-09-09T22:58:24.987Z,15.90
2022-09-09T23:01:29.185Z,15.90
2022-09-09T23:04:32.166Z,15.80
2022-09-09T23:07:35.638Z,15.90
2022-09-09T23:10:43.055Z,15.80
2022-09-09T23:13:51.917Z,15.90
2022-09-09T23:16:55.464Z,15.90
2022-09-09T23:19:58.437Z,15.90
2022-09-09T23:23:01.385Z,15.90
2022-09-09T23:26:07.058Z,15.90
2022-09-09T23:29:14.568Z,16.00
2022-09-09T23:32:17.848Z,16.00
2022-09-09T23:35:20.807Z,16.00
2022-09-09T23:38:23.799Z,16.00
2022-09-09T23:41:28.251Z,15.90
2022-09-09T23:44:31.362Z,15.80
2022-09-09T23:47:34.296Z,15.80
2022-09-09T23:50:37.238Z,15.90
2022-09-09T23:53:41.411Z,15.90
2022-09-09T23:56:45.766Z,15.80
2022-09-09T23:59:48.755Z,15.70
